sensor_id;sensor_type;location;lat;lon;timestamp;P1;durP1;ratioP1;P2;durP2;ratioP2
16391;SDS011;8305;-33.882;151.134;2023-04-29T00:00:15;9.57;;;6.30;;
16391;SDS011;8305;-33.882;151.134;2023-04-29T00:02:46;11.68;;;6.15;;
16391;SDS011;8305;-33.882;151.134;2023-04-29T00:05:17;10.10;;;6.60;;
16391;SDS011;8305;-33.882;151.134;2023-04-29T00:07:48;9.77;;;6.18;;
16391;SDS011;8305;-33.882;151.134;2023-04-29T00:10:20;10.95;;;6.35;;
16391;SDS011;8305;-33.882;151.134;2023-04-29T00:12:51;9.63;;;6.32;;
16391;SDS011;8305;-33.882;151.134;2023-04-29T00:15:24;9.02;;;6.30;;
16391;SDS011;8305;-33.882;151.134;2023-04-29T00:17:57;8.18;;;5.93;;
16391;SDS011;8305;-33.882;151.134;2023-04-29T00:20:28;10.82;;;6.50;;
16391;SDS011;8305;-33.882;151.134;2023-04-29T00:22:59;10.63;;;5.80;;
16391;SDS011;8305;-33.882;151.134;2023-04-29T00:25:31;8.05;;;5.85;;
16391;SDS011;8305;-33.882;151.134;2023-04-29T00:28:04;9.65;;;6.13;;
16391;SDS011;8305;-33.882;151.134;2023-04-29T00:30:37;9.93;;;5.20;;
16391;SDS011;8305;-33.882;151.134;2023-04-29T00:33:08;9.65;;;5.43;;
16391;SDS011;8305;-33.882;151.134;2023-04-29T00:35:39;9.77;;;6.28;;
16391;SDS011;8305;-33.882;151.134;2023-04-29T00:38:10;11.02;;;5.75;;
16391;SDS011;8305;-33.882;151.134;2023-04-29T00:40:41;8.48;;;6.13;;
16391;SDS011;8305;-33.882;151.134;2023-04-29T00:43:13;9.73;;;6.07;;
16391;SDS011;8305;-33.882;151.134;2023-04-29T00:45:46;9.00;;;6.03;;
16391;SDS011;8305;-33.882;151.134;2023-04-29T00:48:17;9.68;;;6.20;;
16391;SDS011;8305;-33.882;151.134;2023-04-29T00:50:48;12.90;;;6.80;;
16391;SDS011;8305;-33.882;151.134;2023-04-29T00:53:19;10.85;;;6.40;;
16391;SDS011;8305;-33.882;151.134;2023-04-29T00:55:53;8.40;;;5.47;;
16391;SDS011;8305;-33.882;151.134;2023-04-29T00:58:26;9.20;;;5.85;;
16391;SDS011;8305;-33.882;151.134;2023-04-29T01:01:01;9.57;;;5.97;;
16391;SDS011;8305;-33.882;151.134;2023-04-29T01:03:32;11.93;;;6.20;;
16391;SDS011;8305;-33.882;151.134;2023-04-29T01:06:06;10.32;;;6.20;;
16391;SDS011;8305;-33.882;151.134;2023-04-29T01:08:47;11.07;;;5.90;;
16391;SDS011;8305;-33.882;151.134;2023-04-29T01:11:29;10.77;;;6.25;;
16391;SDS011;8305;-33.882;151.134;2023-04-29T01:14:03;10.27;;;6.10;;
16391;SDS011;8305;-33.882;151.134;2023-04-29T01:16:39;9.00;;;5.50;;
16391;SDS011;8305;-33.882;151.134;2023-04-29T01:19:21;9.50;;;6.05;;
16391;SDS011;8305;-33.882;151.134;2023-04-29T01:22:11;8.82;;;4.97;;
16391;SDS011;8305;-33.882;151.134;2023-04-29T01:24:45;7.97;;;5.10;;
16391;SDS011;8305;-33.882;151.134;2023-04-29T01:27:20;8.57;;;4.88;;
16391;SDS011;8305;-33.882;151.134;2023-04-29T01:29:58;7.15;;;4.65;;
16391;SDS011;8305;-33.882;151.134;2023-04-29T01:32:39;7.70;;;4.18;;
16391;SDS011;8305;-33.882;151.134;2023-04-29T01:35:20;5.65;;;4.30;;
16391;SDS011;8305;-33.882;151.134;2023-04-29T01:38:00;7.18;;;4.55;;
16391;SDS011;8305;-33.882;151.134;2023-04-29T01:40:42;7.40;;;4.90;;
16391;SDS011;8305;-33.882;151.134;2023-04-29T01:43:22;5.75;;;4.35;;
16391;SDS011;8305;-33.882;151.134;2023-04-29T01:45:56;7.47;;;4.70;;
16391;SDS011;8305;-33.882;151.134;2023-04-29T01:48:29;6.78;;;4.80;;
16391;SDS011;8305;-33.882;151.134;2023-04-29T01:51:00;8.10;;;4.68;;
16391;SDS011;8305;-33.882;151.134;2023-04-29T01:53:32;6.63;;;4.32;;
16391;SDS011;8305;-33.882;151.134;2023-04-29T01:56:08;8.05;;;4.20;;
16391;SDS011;8305;-33.882;151.134;2023-04-29T01:58:39;10.20;;;4.25;;
16391;SDS011;8305;-33.882;151.134;2023-04-29T02:01:10;7.40;;;3.40;;
16391;SDS011;8305;-33.882;151.134;2023-04-29T02:03:41;5.97;;;3.10;;
16391;SDS011;8305;-33.882;151.134;2023-04-29T02:06:12;6.75;;;2.88;;
16391;SDS011;8305;-33.882;151.134;2023-04-29T02:08:43;6.13;;;3.40;;
16391;SDS011;8305;-33.882;151.134;2023-04-29T02:11:16;7.07;;;3.92;;
16391;SDS011;8305;-33.882;151.134;2023-04-29T02:13:47;5.82;;;3.30;;
16391;SDS011;8305;-33.882;151.134;2023-04-29T02:16:18;7.22;;;3.28;;
16391;SDS011;8305;-33.882;151.134;2023-04-29T02:18:49;5.50;;;3.30;;
16391;SDS011;8305;-33.882;151.134;2023-04-29T02:21:20;5.93;;;3.10;;
16391;SDS011;8305;-33.882;151.134;2023-04-29T02:23:54;6.38;;;3.03;;
16391;SDS011;8305;-33.882;151.134;2023-04-29T02:26:27;5.75;;;3.08;;
16391;SDS011;8305;-33.882;151.134;2023-04-29T02:29:03;7.55;;;3.13;;
16391;SDS011;8305;-33.882;151.134;2023-04-29T02:31:34;6.13;;;3.08;;
16391;SDS011;8305;-33.882;151.134;2023-04-29T02:34:05;6.70;;;3.10;;
16391;SDS011;8305;-33.882;151.134;2023-04-29T02:36:36;4.10;;;2.88;;
16391;SDS011;8305;-33.882;151.134;2023-04-29T02:39:13;5.97;;;2.90;;
16391;SDS011;8305;-33.882;151.134;2023-04-29T02:41:47;4.95;;;2.90;;
16391;SDS011;8305;-33.882;151.134;2023-04-29T02:44:22;5.05;;;2.90;;
16391;SDS011;8305;-33.882;151.134;2023-04-29T02:46:53;7.05;;;3.42;;
16391;SDS011;8305;-33.882;151.134;2023-04-29T02:49:24;7.57;;;3.40;;
16391;SDS011;8305;-33.882;151.134;2023-04-29T02:51:58;4.38;;;3.00;;
16391;SDS011;8305;-33.882;151.134;2023-04-29T02:54:29;6.35;;;2.80;;
16391;SDS011;8305;-33.882;151.134;2023-04-29T02:57:02;3.72;;;2.42;;
16391;SDS011;8305;-33.882;151.134;2023-04-29T02:59:33;5.82;;;2.70;;
16391;SDS011;8305;-33.882;151.134;2023-04-29T03:02:04;6.28;;;2.63;;
16391;SDS011;8305;-33.882;151.134;2023-04-29T03:04:38;5.50;;;2.78;;
16391;SDS011;8305;-33.882;151.134;2023-04-29T03:07:09;3.85;;;2.20;;
16391;SDS011;8305;-33.882;151.134;2023-04-29T03:09:42;6.75;;;2.72;;
16391;SDS011;8305;-33.882;151.134;2023-04-29T03:12:15;4.13;;;2.58;;
16391;SDS011;8305;-33.882;151.134;2023-04-29T03:14:46;5.45;;;2.45;;
16391;SDS011;8305;-33.882;151.134;2023-04-29T03:17:18;4.63;;;2.50;;
16391;SDS011;8305;-33.882;151.134;2023-04-29T03:19:51;4.35;;;2.60;;
16391;SDS011;8305;-33.882;151.134;2023-04-29T03:22:22;5.63;;;3.30;;
16391;SDS011;8305;-33.882;151.134;2023-04-29T03:24:53;7.00;;;2.58;;
16391;SDS011;8305;-33.882;151.134;2023-04-29T03:27:26;4.35;;;2.63;;
16391;SDS011;8305;-33.882;151.134;2023-04-29T03:29:57;6.10;;;2.60;;
16391;SDS011;8305;-33.882;151.134;2023-04-29T03:32:28;7.57;;;2.78;;
16391;SDS011;8305;-33.882;151.134;2023-04-29T03:34:59;4.70;;;2.30;;
16391;SDS011;8305;-33.882;151.134;2023-04-29T03:37:30;3.78;;;2.13;;
16391;SDS011;8305;-33.882;151.134;2023-04-29T03:40:03;5.25;;;2.20;;
16391;SDS011;8305;-33.882;151.134;2023-04-29T03:42:36;3.95;;;2.05;;
16391;SDS011;8305;-33.882;151.134;2023-04-29T03:45:08;4.70;;;2.08;;
16391;SDS011;8305;-33.882;151.134;2023-04-29T03:47:40;4.32;;;2.30;;
16391;SDS011;8305;-33.882;151.134;2023-04-29T03:50:11;3.38;;;2.20;;
16391;SDS011;8305;-33.882;151.134;2023-04-29T03:52:42;5.05;;;2.53;;
16391;SDS011;8305;-33.882;151.134;2023-04-29T03:55:13;4.30;;;2.63;;
16391;SDS011;8305;-33.882;151.134;2023-04-29T03:57:46;5.97;;;2.80;;
16391;SDS011;8305;-33.882;151.134;2023-04-29T04:00:17;4.88;;;2.83;;
16391;SDS011;8305;-33.882;151.134;2023-04-29T04:02:49;3.67;;;2.70;;
16391;SDS011;8305;-33.882;151.134;2023-04-29T04:05:21;4.22;;;2.70;;
16391;SDS011;8305;-33.882;151.134;2023-04-29T04:07:52;4.47;;;2.60;;
16391;SDS011;8305;-33.882;151.134;2023-04-29T04:10:25;5.28;;;2.97;;
16391;SDS011;8305;-33.882;151.134;2023-04-29T04:12:58;4.47;;;2.95;;
16391;SDS011;8305;-33.882;151.134;2023-04-29T04:15:29;5.90;;;3.35;;
16391;SDS011;8305;-33.882;151.134;2023-04-29T04:18:01;5.93;;;3.28;;
16391;SDS011;8305;-33.882;151.134;2023-04-29T04:20:32;4.53;;;3.42;;
16391;SDS011;8305;-33.882;151.134;2023-04-29T04:23:06;7.05;;;3.90;;
16391;SDS011;8305;-33.882;151.134;2023-04-29T04:25:37;6.32;;;4.00;;
16391;SDS011;8305;-33.882;151.134;2023-04-29T04:28:15;7.43;;;4.25;;
16391;SDS011;8305;-33.882;151.134;2023-04-29T04:30:48;6.38;;;4.30;;
16391;SDS011;8305;-33.882;151.134;2023-04-29T04:33:19;5.72;;;4.00;;
16391;SDS011;8305;-33.882;151.134;2023-04-29T04:35:50;5.78;;;3.60;;
16391;SDS011;8305;-33.882;151.134;2023-04-29T04:38:21;7.63;;;4.32;;
16391;SDS011;8305;-33.882;151.134;2023-04-29T04:40:53;6.10;;;4.28;;
16391;SDS011;8305;-33.882;151.134;2023-04-29T04:43:26;5.88;;;4.53;;
16391;SDS011;8305;-33.882;151.134;2023-04-29T04:45:57;6.85;;;4.90;;
16391;SDS011;8305;-33.882;151.134;2023-04-29T04:48:29;7.25;;;4.70;;
16391;SDS011;8305;-33.882;151.134;2023-04-29T04:51:06;8.30;;;5.32;;
16391;SDS011;8305;-33.882;151.134;2023-04-29T04:53:37;5.78;;;4.72;;
16391;SDS011;8305;-33.882;151.134;2023-04-29T04:56:09;7.45;;;4.70;;
16391;SDS011;8305;-33.882;151.134;2023-04-29T04:58:42;5.95;;;4.13;;
16391;SDS011;8305;-33.882;151.134;2023-04-29T05:01:13;5.82;;;4.22;;
16391;SDS011;8305;-33.882;151.134;2023-04-29T05:03:44;6.82;;;3.83;;
16391;SDS011;8305;-33.882;151.134;2023-04-29T05:06:15;6.28;;;4.32;;
16391;SDS011;8305;-33.882;151.134;2023-04-29T05:08:46;8.13;;;4.00;;
16391;SDS011;8305;-33.882;151.134;2023-04-29T05:11:18;7.35;;;4.20;;
16391;SDS011;8305;-33.882;151.134;2023-04-29T05:13:51;8.57;;;3.88;;
16391;SDS011;8305;-33.882;151.134;2023-04-29T05:16:22;6.13;;;3.80;;
16391;SDS011;8305;-33.882;151.134;2023-04-29T05:18:53;4.75;;;3.78;;
16391;SDS011;8305;-33.882;151.134;2023-04-29T05:21:24;5.07;;;3.38;;
16391;SDS011;8305;-33.882;151.134;2023-04-29T05:23:55;6.47;;;3.33;;
16391;SDS011;8305;-33.882;151.134;2023-04-29T05:26:26;4.57;;;3.25;;
16391;SDS011;8305;-33.882;151.134;2023-04-29T05:28:59;6.47;;;3.50;;
16391;SDS011;8305;-33.882;151.134;2023-04-29T05:31:30;4.28;;;3.30;;
16391;SDS011;8305;-33.882;151.134;2023-04-29T05:34:01;5.40;;;3.40;;
16391;SDS011;8305;-33.882;151.134;2023-04-29T05:36:32;4.68;;;3.10;;
16391;SDS011;8305;-33.882;151.134;2023-04-29T05:39:03;6.97;;;3.65;;
16391;SDS011;8305;-33.882;151.134;2023-04-29T05:41:34;5.45;;;3.67;;
16391;SDS011;8305;-33.882;151.134;2023-04-29T05:44:07;7.80;;;4.57;;
16391;SDS011;8305;-33.882;151.134;2023-04-29T05:46:39;7.55;;;4.25;;
16391;SDS011;8305;-33.882;151.134;2023-04-29T05:49:10;6.47;;;4.28;;
16391;SDS011;8305;-33.882;151.134;2023-04-29T05:51:41;6.28;;;3.80;;
16391;SDS011;8305;-33.882;151.134;2023-04-29T05:54:12;6.47;;;4.40;;
16391;SDS011;8305;-33.882;151.134;2023-04-29T05:56:43;5.57;;;4.10;;
16391;SDS011;8305;-33.882;151.134;2023-04-29T05:59:16;6.05;;;4.20;;
16391;SDS011;8305;-33.882;151.134;2023-04-29T06:01:47;5.75;;;4.53;;
16391;SDS011;8305;-33.882;151.134;2023-04-29T06:04:18;7.45;;;4.05;;
16391;SDS011;8305;-33.882;151.134;2023-04-29T06:06:49;6.00;;;4.30;;
16391;SDS011;8305;-33.882;151.134;2023-04-29T06:09:21;5.38;;;4.18;;
16391;SDS011;8305;-33.882;151.134;2023-04-29T06:11:53;7.40;;;4.18;;
16391;SDS011;8305;-33.882;151.134;2023-04-29T06:14:26;5.53;;;4.20;;
16391;SDS011;8305;-33.882;151.134;2023-04-29T06:16:57;6.30;;;3.70;;
16391;SDS011;8305;-33.882;151.134;2023-04-29T06:19:29;5.78;;;3.97;;
16391;SDS011;8305;-33.882;151.134;2023-04-29T06:22:00;7.28;;;3.85;;
16391;SDS011;8305;-33.882;151.134;2023-04-29T06:24:31;5.10;;;3.38;;
16391;SDS011;8305;-33.882;151.134;2023-04-29T06:27:02;4.35;;;3.50;;
16391;SDS011;8305;-33.882;151.134;2023-04-29T06:29:35;4.82;;;3.78;;
16391;SDS011;8305;-33.882;151.134;2023-04-29T06:32:06;4.65;;;3.60;;
16391;SDS011;8305;-33.882;151.134;2023-04-29T06:34:39;6.45;;;3.40;;
16391;SDS011;8305;-33.882;151.134;2023-04-29T06:37:10;6.32;;;3.60;;
16391;SDS011;8305;-33.882;151.134;2023-04-29T06:39:41;5.07;;;3.40;;
16391;SDS011;8305;-33.882;151.134;2023-04-29T06:42:13;8.13;;;3.53;;
16391;SDS011;8305;-33.882;151.134;2023-04-29T06:44:46;5.03;;;3.00;;
16391;SDS011;8305;-33.882;151.134;2023-04-29T06:47:17;4.72;;;3.42;;
16391;SDS011;8305;-33.882;151.134;2023-04-29T06:49:48;5.20;;;2.80;;
16391;SDS011;8305;-33.882;151.134;2023-04-29T06:52:19;5.57;;;3.35;;
16391;SDS011;8305;-33.882;151.134;2023-04-29T06:54:50;4.15;;;3.10;;
16391;SDS011;8305;-33.882;151.134;2023-04-29T06:57:21;6.20;;;3.20;;
16391;SDS011;8305;-33.882;151.134;2023-04-29T06:59:54;5.93;;;3.35;;
16391;SDS011;8305;-33.882;151.134;2023-04-29T07:02:26;4.38;;;3.72;;
16391;SDS011;8305;-33.882;151.134;2023-04-29T07:04:57;5.30;;;3.63;;
16391;SDS011;8305;-33.882;151.134;2023-04-29T07:07:28;7.07;;;3.70;;
16391;SDS011;8305;-33.882;151.134;2023-04-29T07:09:59;5.18;;;3.60;;
16391;SDS011;8305;-33.882;151.134;2023-04-29T07:12:30;5.70;;;3.30;;
16391;SDS011;8305;-33.882;151.134;2023-04-29T07:15:04;4.88;;;3.38;;
16391;SDS011;8305;-33.882;151.134;2023-04-29T07:17:36;3.80;;;3.30;;
16391;SDS011;8305;-33.882;151.134;2023-04-29T07:20:07;4.72;;;3.03;;
16391;SDS011;8305;-33.882;151.134;2023-04-29T07:22:39;4.82;;;3.15;;
16391;SDS011;8305;-33.882;151.134;2023-04-29T07:25:10;5.85;;;2.90;;
16391;SDS011;8305;-33.882;151.134;2023-04-29T07:27:41;3.90;;;2.88;;
16391;SDS011;8305;-33.882;151.134;2023-04-29T07:30:15;4.15;;;3.08;;
16391;SDS011;8305;-33.882;151.134;2023-04-29T07:32:46;4.20;;;3.03;;
16391;SDS011;8305;-33.882;151.134;2023-04-29T07:35:17;5.75;;;3.33;;
16391;SDS011;8305;-33.882;151.134;2023-04-29T07:37:48;6.75;;;3.30;;
16391;SDS011;8305;-33.882;151.134;2023-04-29T07:40:19;4.40;;;3.13;;
16391;SDS011;8305;-33.882;151.134;2023-04-29T07:42:50;4.40;;;3.17;;
16391;SDS011;8305;-33.882;151.134;2023-04-29T07:45:23;6.28;;;3.50;;
16391;SDS011;8305;-33.882;151.134;2023-04-29T07:47:54;6.70;;;3.92;;
16391;SDS011;8305;-33.882;151.134;2023-04-29T07:50:25;5.97;;;3.97;;
16391;SDS011;8305;-33.882;151.134;2023-04-29T07:52:56;8.13;;;4.40;;
16391;SDS011;8305;-33.882;151.134;2023-04-29T07:55:28;6.28;;;4.78;;
16391;SDS011;8305;-33.882;151.134;2023-04-29T07:57:59;6.85;;;4.40;;
16391;SDS011;8305;-33.882;151.134;2023-04-29T08:00:32;8.00;;;5.20;;
16391;SDS011;8305;-33.882;151.134;2023-04-29T08:03:04;7.45;;;4.93;;
16391;SDS011;8305;-33.882;151.134;2023-04-29T08:05:35;7.07;;;5.05;;
16391;SDS011;8305;-33.882;151.134;2023-04-29T08:08:06;9.10;;;5.13;;
16391;SDS011;8305;-33.882;151.134;2023-04-29T08:10:37;5.65;;;4.05;;
16391;SDS011;8305;-33.882;151.134;2023-04-29T08:13:09;5.25;;;3.05;;
16391;SDS011;8305;-33.882;151.134;2023-04-29T08:15:42;4.25;;;2.55;;
16391;SDS011;8305;-33.882;151.134;2023-04-29T08:18:13;5.05;;;1.90;;
16391;SDS011;8305;-33.882;151.134;2023-04-29T08:20:45;6.57;;;1.83;;
16391;SDS011;8305;-33.882;151.134;2023-04-29T08:23:16;2.78;;;1.40;;
16391;SDS011;8305;-33.882;151.134;2023-04-29T08:25:47;4.43;;;1.10;;
16391;SDS011;8305;-33.882;151.134;2023-04-29T08:28:21;6.18;;;1.40;;
16391;SDS011;8305;-33.882;151.134;2023-04-29T08:30:54;6.82;;;1.40;;
16391;SDS011;8305;-33.882;151.134;2023-04-29T08:33:25;5.63;;;1.35;;
16391;SDS011;8305;-33.882;151.134;2023-04-29T08:35:59;4.28;;;1.30;;
16391;SDS011;8305;-33.882;151.134;2023-04-29T08:38:31;5.47;;;1.33;;
16391;SDS011;8305;-33.882;151.134;2023-04-29T08:41:02;5.80;;;1.40;;
16391;SDS011;8305;-33.882;151.134;2023-04-29T08:43:35;5.22;;;1.33;;
16391;SDS011;8305;-33.882;151.134;2023-04-29T08:46:09;6.25;;;1.30;;
16391;SDS011;8305;-33.882;151.134;2023-04-29T08:48:41;7.05;;;1.20;;
16391;SDS011;8305;-33.882;151.134;2023-04-29T08:51:12;6.47;;;1.50;;
16391;SDS011;8305;-33.882;151.134;2023-04-29T08:53:43;6.22;;;1.30;;
16391;SDS011;8305;-33.882;151.134;2023-04-29T08:56:15;6.15;;;1.40;;
16391;SDS011;8305;-33.882;151.134;2023-04-29T08:58:48;6.57;;;1.25;;
16391;SDS011;8305;-33.882;151.134;2023-04-29T09:01:25;7.65;;;1.27;;
16391;SDS011;8305;-33.882;151.134;2023-04-29T09:04:02;8.50;;;1.15;;
16391;SDS011;8305;-33.882;151.134;2023-04-29T09:06:37;8.55;;;1.40;;
16391;SDS011;8305;-33.882;151.134;2023-04-29T09:09:08;7.10;;;1.10;;
16391;SDS011;8305;-33.882;151.134;2023-04-29T09:11:40;6.53;;;1.33;;
16391;SDS011;8305;-33.882;151.134;2023-04-29T09:14:11;6.35;;;1.13;;
16391;SDS011;8305;-33.882;151.134;2023-04-29T09:16:47;6.72;;;1.20;;
16391;SDS011;8305;-33.882;151.134;2023-04-29T09:19:28;6.55;;;1.13;;
16391;SDS011;8305;-33.882;151.134;2023-04-29T09:22:01;9.60;;;1.42;;
16391;SDS011;8305;-33.882;151.134;2023-04-29T09:24:33;6.78;;;1.48;;
16391;SDS011;8305;-33.882;151.134;2023-04-29T09:27:05;5.65;;;1.13;;
16391;SDS011;8305;-33.882;151.134;2023-04-29T09:29:36;5.80;;;1.08;;
16391;SDS011;8305;-33.882;151.134;2023-04-29T09:32:21;5.15;;;1.27;;
16391;SDS011;8305;-33.882;151.134;2023-04-29T09:34:52;4.85;;;1.20;;
16391;SDS011;8305;-33.882;151.134;2023-04-29T09:37:24;8.90;;;1.70;;
16391;SDS011;8305;-33.882;151.134;2023-04-29T09:39:56;6.57;;;1.20;;
16391;SDS011;8305;-33.882;151.134;2023-04-29T09:42:27;6.88;;;1.20;;
16391;SDS011;8305;-33.882;151.134;2023-04-29T09:44:58;4.45;;;1.30;;
16391;SDS011;8305;-33.882;151.134;2023-04-29T09:47:31;8.20;;;1.30;;
16391;SDS011;8305;-33.882;151.134;2023-04-29T09:50:10;4.43;;;1.30;;
16391;SDS011;8305;-33.882;151.134;2023-04-29T09:52:41;8.10;;;1.45;;
16391;SDS011;8305;-33.882;151.134;2023-04-29T09:55:13;12.25;;;1.70;;
16391;SDS011;8305;-33.882;151.134;2023-04-29T09:57:44;5.78;;;1.10;;
16391;SDS011;8305;-33.882;151.134;2023-04-29T10:00:15;3.80;;;1.10;;
16391;SDS011;8305;-33.882;151.134;2023-04-29T10:02:48;5.65;;;1.25;;
16391;SDS011;8305;-33.882;151.134;2023-04-29T10:05:24;5.00;;;1.23;;
16391;SDS011;8305;-33.882;151.134;2023-04-29T10:07:58;5.68;;;1.30;;
16391;SDS011;8305;-33.882;151.134;2023-04-29T10:10:29;3.35;;;1.10;;
16391;SDS011;8305;-33.882;151.134;2023-04-29T10:13:01;4.50;;;0.90;;
16391;SDS011;8305;-33.882;151.134;2023-04-29T10:15:33;5.80;;;1.00;;
16391;SDS011;8305;-33.882;151.134;2023-04-29T10:18:11;4.25;;;1.00;;
16391;SDS011;8305;-33.882;151.134;2023-04-29T10:20:47;2.95;;;0.88;;
16391;SDS011;8305;-33.882;151.134;2023-04-29T10:23:18;2.15;;;0.73;;
16391;SDS011;8305;-33.882;151.134;2023-04-29T10:25:53;2.08;;;0.77;;
16391;SDS011;8305;-33.882;151.134;2023-04-29T10:28:25;2.97;;;0.93;;
16391;SDS011;8305;-33.882;151.134;2023-04-29T10:30:59;2.33;;;0.95;;
16391;SDS011;8305;-33.882;151.134;2023-04-29T10:33:34;5.18;;;1.25;;
16391;SDS011;8305;-33.882;151.134;2023-04-29T10:36:08;2.97;;;0.88;;
16391;SDS011;8305;-33.882;151.134;2023-04-29T10:38:40;5.88;;;1.10;;
16391;SDS011;8305;-33.882;151.134;2023-04-29T10:41:15;3.58;;;1.00;;
16391;SDS011;8305;-33.882;151.134;2023-04-29T10:43:51;4.70;;;1.15;;
16391;SDS011;8305;-33.882;151.134;2023-04-29T10:46:22;4.32;;;1.00;;
16391;SDS011;8305;-33.882;151.134;2023-04-29T10:48:59;3.13;;;1.00;;
16391;SDS011;8305;-33.882;151.134;2023-04-29T10:51:31;3.25;;;0.73;;
16391;SDS011;8305;-33.882;151.134;2023-04-29T10:54:06;3.25;;;0.90;;
16391;SDS011;8305;-33.882;151.134;2023-04-29T10:56:38;2.50;;;0.80;;
16391;SDS011;8305;-33.882;151.134;2023-04-29T10:59:11;3.28;;;1.00;;
16391;SDS011;8305;-33.882;151.134;2023-04-29T11:01:46;2.65;;;0.90;;
16391;SDS011;8305;-33.882;151.134;2023-04-29T11:04:20;2.92;;;0.93;;
16391;SDS011;8305;-33.882;151.134;2023-04-29T11:06:51;3.78;;;0.98;;
16391;SDS011;8305;-33.882;151.134;2023-04-29T11:09:24;3.10;;;0.80;;
16391;SDS011;8305;-33.882;151.134;2023-04-29T11:11:56;2.30;;;0.90;;
16391;SDS011;8305;-33.882;151.134;2023-04-29T11:14:29;4.15;;;1.02;;
16391;SDS011;8305;-33.882;151.134;2023-04-29T11:17:04;1.88;;;1.00;;
16391;SDS011;8305;-33.882;151.134;2023-04-29T11:19:41;1.75;;;0.70;;
16391;SDS011;8305;-33.882;151.134;2023-04-29T11:22:24;2.28;;;0.80;;
16391;SDS011;8305;-33.882;151.134;2023-04-29T11:24:57;4.68;;;1.05;;
16391;SDS011;8305;-33.882;151.134;2023-04-29T11:27:29;3.28;;;1.05;;
16391;SDS011;8305;-33.882;151.134;2023-04-29T11:30:01;2.75;;;0.75;;
16391;SDS011;8305;-33.882;151.134;2023-04-29T11:32:34;4.68;;;0.90;;
16391;SDS011;8305;-33.882;151.134;2023-04-29T11:35:11;3.95;;;0.95;;
16391;SDS011;8305;-33.882;151.134;2023-04-29T11:37:43;3.08;;;0.70;;
16391;SDS011;8305;-33.882;151.134;2023-04-29T11:40:15;2.97;;;0.90;;
16391;SDS011;8305;-33.882;151.134;2023-04-29T11:42:46;3.28;;;1.02;;
16391;SDS011;8305;-33.882;151.134;2023-04-29T11:45:18;4.97;;;1.00;;
16391;SDS011;8305;-33.882;151.134;2023-04-29T11:47:49;4.00;;;1.30;;
16391;SDS011;8305;-33.882;151.134;2023-04-29T11:50:22;2.70;;;1.10;;
16391;SDS011;8305;-33.882;151.134;2023-04-29T11:52:53;2.67;;;1.20;;
16391;SDS011;8305;-33.882;151.134;2023-04-29T11:55:26;3.85;;;1.20;;
16391;SDS011;8305;-33.882;151.134;2023-04-29T11:57:57;2.83;;;1.10;;
16391;SDS011;8305;-33.882;151.134;2023-04-29T12:00:29;2.28;;;1.13;;
16391;SDS011;8305;-33.882;151.134;2023-04-29T12:03:00;2.92;;;1.20;;
16391;SDS011;8305;-33.882;151.134;2023-04-29T12:05:38;4.43;;;1.30;;
16391;SDS011;8305;-33.882;151.134;2023-04-29T12:08:14;2.25;;;1.00;;
16391;SDS011;8305;-33.882;151.134;2023-04-29T12:10:48;3.58;;;1.40;;
16391;SDS011;8305;-33.882;151.134;2023-04-29T12:13:19;2.90;;;1.33;;
16391;SDS011;8305;-33.882;151.134;2023-04-29T12:15:53;5.03;;;1.30;;
16391;SDS011;8305;-33.882;151.134;2023-04-29T12:18:26;2.28;;;1.20;;
16391;SDS011;8305;-33.882;151.134;2023-04-29T12:21:00;2.15;;;1.30;;
16391;SDS011;8305;-33.882;151.134;2023-04-29T12:23:31;3.05;;;1.40;;
16391;SDS011;8305;-33.882;151.134;2023-04-29T12:26:06;4.97;;;1.52;;
16391;SDS011;8305;-33.882;151.134;2023-04-29T12:28:37;2.13;;;1.55;;
16391;SDS011;8305;-33.882;151.134;2023-04-29T12:31:10;3.22;;;2.20;;
16391;SDS011;8305;-33.882;151.134;2023-04-29T12:33:42;5.10;;;2.50;;
16391;SDS011;8305;-33.882;151.134;2023-04-29T12:36:18;2.75;;;2.10;;
16391;SDS011;8305;-33.882;151.134;2023-04-29T12:38:51;4.53;;;2.05;;
16391;SDS011;8305;-33.882;151.134;2023-04-29T12:41:35;8.73;;;1.70;;
16391;SDS011;8305;-33.882;151.134;2023-04-29T12:44:07;4.18;;;1.70;;
16391;SDS011;8305;-33.882;151.134;2023-04-29T12:46:38;4.78;;;1.65;;
16391;SDS011;8305;-33.882;151.134;2023-04-29T12:49:10;2.40;;;1.17;;
16391;SDS011;8305;-33.882;151.134;2023-04-29T12:51:43;3.53;;;1.02;;
16391;SDS011;8305;-33.882;151.134;2023-04-29T12:54:14;2.35;;;0.70;;
16391;SDS011;8305;-33.882;151.134;2023-04-29T12:56:45;2.15;;;0.50;;
16391;SDS011;8305;-33.882;151.134;2023-04-29T12:59:16;2.40;;;0.68;;
16391;SDS011;8305;-33.882;151.134;2023-04-29T13:01:47;1.98;;;0.65;;
16391;SDS011;8305;-33.882;151.134;2023-04-29T13:04:18;1.05;;;0.60;;
16391;SDS011;8305;-33.882;151.134;2023-04-29T13:06:52;2.35;;;0.60;;
16391;SDS011;8305;-33.882;151.134;2023-04-29T13:09:25;1.38;;;0.50;;
16391;SDS011;8305;-33.882;151.134;2023-04-29T13:11:56;0.85;;;0.60;;
16391;SDS011;8305;-33.882;151.134;2023-04-29T13:14:28;1.90;;;0.40;;
16391;SDS011;8305;-33.882;151.134;2023-04-29T13:16:59;1.35;;;0.50;;
16391;SDS011;8305;-33.882;151.134;2023-04-29T13:19:30;1.95;;;0.40;;
16391;SDS011;8305;-33.882;151.134;2023-04-29T13:22:03;3.15;;;0.43;;
16391;SDS011;8305;-33.882;151.134;2023-04-29T13:24:34;2.72;;;0.40;;
16391;SDS011;8305;-33.882;151.134;2023-04-29T13:27:05;1.60;;;0.47;;
16391;SDS011;8305;-33.882;151.134;2023-04-29T13:29:36;1.75;;;0.50;;
16391;SDS011;8305;-33.882;151.134;2023-04-29T13:32:07;2.80;;;0.63;;
16391;SDS011;8305;-33.882;151.134;2023-04-29T13:34:38;2.20;;;0.57;;
16391;SDS011;8305;-33.882;151.134;2023-04-29T13:37:12;1.45;;;0.52;;
16391;SDS011;8305;-33.882;151.134;2023-04-29T13:39:43;0.80;;;0.40;;
16391;SDS011;8305;-33.882;151.134;2023-04-29T13:42:14;1.05;;;0.40;;
16391;SDS011;8305;-33.882;151.134;2023-04-29T13:44:45;0.40;;;0.40;;
16391;SDS011;8305;-33.882;151.134;2023-04-29T13:47:16;0.70;;;0.40;;
16391;SDS011;8305;-33.882;151.134;2023-04-29T13:49:47;0.25;;;0.25;;
16391;SDS011;8305;-33.882;151.134;2023-04-29T13:52:20;1.45;;;0.40;;
16391;SDS011;8305;-33.882;151.134;2023-04-29T13:54:51;0.30;;;0.30;;
16391;SDS011;8305;-33.882;151.134;2023-04-29T13:57:22;0.68;;;0.30;;
16391;SDS011;8305;-33.882;151.134;2023-04-29T13:59:54;1.13;;;0.40;;
16391;SDS011;8305;-33.882;151.134;2023-04-29T14:02:25;1.17;;;0.30;;
16391;SDS011;8305;-33.882;151.134;2023-04-29T14:04:56;0.73;;;0.30;;
16391;SDS011;8305;-33.882;151.134;2023-04-29T14:07:29;0.65;;;0.40;;
16391;SDS011;8305;-33.882;151.134;2023-04-29T14:10:00;0.63;;;0.40;;
16391;SDS011;8305;-33.882;151.134;2023-04-29T14:12:31;0.38;;;0.30;;
16391;SDS011;8305;-33.882;151.134;2023-04-29T14:15:02;1.55;;;0.40;;
16391;SDS011;8305;-33.882;151.134;2023-04-29T14:17:34;1.00;;;0.47;;
16391;SDS011;8305;-33.882;151.134;2023-04-29T14:20:08;0.30;;;0.30;;
16391;SDS011;8305;-33.882;151.134;2023-04-29T14:22:41;1.55;;;0.40;;
16391;SDS011;8305;-33.882;151.134;2023-04-29T14:25:12;0.70;;;0.35;;
16391;SDS011;8305;-33.882;151.134;2023-04-29T14:27:43;1.10;;;0.30;;
16391;SDS011;8305;-33.882;151.134;2023-04-29T14:30:14;0.30;;;0.20;;
16391;SDS011;8305;-33.882;151.134;2023-04-29T14:32:45;0.85;;;0.30;;
16391;SDS011;8305;-33.882;151.134;2023-04-29T14:35:16;0.65;;;0.40;;
16391;SDS011;8305;-33.882;151.134;2023-04-29T14:37:50;1.45;;;0.22;;
16391;SDS011;8305;-33.882;151.134;2023-04-29T14:40:21;0.20;;;0.20;;
16391;SDS011;8305;-33.882;151.134;2023-04-29T14:42:52;0.55;;;0.30;;
16391;SDS011;8305;-33.882;151.134;2023-04-29T14:45:23;1.23;;;0.40;;
16391;SDS011;8305;-33.882;151.134;2023-04-29T14:47:54;0.40;;;0.30;;
16391;SDS011;8305;-33.882;151.134;2023-04-29T14:50:25;0.90;;;0.38;;